Time;durP1;ratioP1;P1;durP2;ratioP2;P2;SDS_P1;SDS_P2;PMS_P1;PMS_P2;Temp;Humidity;BMP_temperature;BMP_pressure;BME280_temperature;BME280_humidity;BME280_pressure;Samples;Min_cycle;Max_cycle;Signal;HPM_P1;HPM_P2
2022/09/20 00:01:14;;;;;;;3.08;1.02;;;8.30;99.90;;;;;;4896777;29;20045;-83
2022/09/20 00:03:45;;;;;;;2.85;0.57;;;8.30;99.90;;;;;;4897155;29;20048;-81
2022/09/20 00:06:13;;;;;;;2.78;0.82;;;8.20;99.90;;;;;;4897060;29;20087;-81
2022/09/20 00:08:39;;;;;;;0.50;0.38;;;8.20;99.90;;;;;;4880064;29;20445;-81
2022/09/20 00:11:09;;;;;;;0.93;0.40;;;8.20;99.90;;;;;;4896537;29;20041;-81
2022/09/20 00:13:36;;;;;;;1.80;0.60;;;8.20;99.90;;;;;;4896900;29;20108;-81
2022/09/20 00:16:12;;;;;;;0.63;0.40;;;8.40;99.90;;;;;;4896949;29;20048;-81
2022/09/20 00:18:38;;;;;;;0.90;0.40;;;8.10;99.90;;;;;;4896449;29;20103;-81
2022/09/20 00:21:04;;;;;;;1.45;0.50;;;8.10;99.90;;;;;;4865300;29;20151;-82
2022/09/20 00:23:31;;;;;;;1.70;0.35;;;8.10;99.90;;;;;;4881450;29;20583;-82
2022/09/20 00:26:00;;;;;;;2.55;0.55;;;8.10;99.90;;;;;;4885873;29;20044;-82
2022/09/20 00:28:26;;;;;;;0.45;0.30;;;8.10;99.90;;;;;;4900557;29;20498;-82
2022/09/20 00:30:53;;;;;;;0.70;0.40;;;8.10;99.90;;;;;;4900732;29;20376;-82
2022/09/20 00:33:21;;;;;;;2.72;0.80;;;8.20;99.90;;;;;;4887761;29;20046;-82
2022/09/20 00:35:46;;;;;;;1.67;0.43;;;8.30;99.90;;;;;;4900713;29;20044;-82
2022/09/20 00:38:13;;;;;;;1.90;0.63;;;8.10;99.90;;;;;;4869309;29;20049;-81
2022/09/20 00:40:43;;;;;;;1.42;0.60;;;8.10;99.90;;;;;;4900630;29;20048;-81
2022/09/20 00:43:17;;;;;;;0.85;0.40;;;8.00;99.90;;;;;;4884689;29;20049;-81
2022/09/20 00:45:46;;;;;;;0.52;0.20;;;8.10;99.90;;;;;;4900390;29;20036;-80
2022/09/20 00:48:32;;;;;;;1.13;0.40;;;8.20;99.90;;;;;;4900152;29;20033;-81
2022/09/20 00:51:06;;;;;;;2.63;0.63;;;8.00;99.90;;;;;;4881704;29;20068;-81
2022/09/20 00:53:40;;;;;;;2.65;0.57;;;8.00;99.90;;;;;;4914277;29;20105;-82
2022/09/20 00:56:12;;;;;;;2.30;0.60;;;7.90;99.90;;;;;;4884944;29;20052;-82
2022/09/20 00:58:43;;;;;;;0.80;0.40;;;7.80;99.90;;;;;;4900353;29;20059;-82
2022/09/20 01:01:10;;;;;;;1.08;0.50;;;7.80;99.90;;;;;;4884643;29;20142;-82
2022/09/20 01:03:38;;;;;;;0.85;0.35;;;7.80;99.90;;;;;;4869005;29;20451;-82
2022/09/20 01:06:08;;;;;;;0.35;0.22;;;7.90;99.90;;;;;;4900429;29;20412;-82
2022/09/20 01:08:36;;;;;;;0.75;0.38;;;7.80;99.90;;;;;;4899458;29;20522;-83
2022/09/20 01:11:01;;;;;;;4.30;0.68;;;7.80;99.90;;;;;;4900028;29;20036;-83
2022/09/20 01:13:27;;;;;;;1.55;0.70;;;8.00;99.90;;;;;;4899764;29;20055;-83
2022/09/20 01:15:54;;;;;;;2.70;0.38;;;7.80;99.90;;;;;;4899991;29;20451;-82
2022/09/20 01:18:22;;;;;;;3.03;0.52;;;7.80;99.90;;;;;;4899837;29;20048;-82
2022/09/20 01:20:49;;;;;;;1.52;0.50;;;8.20;99.90;;;;;;4883749;29;20045;-82
2022/09/20 01:23:43;;;;;;;1.23;0.55;;;7.80;99.90;;;;;;4883778;29;20051;-83
2022/09/20 01:26:20;;;;;;;1.98;0.70;;;7.80;99.90;;;;;;4884285;29;20399;-82
2022/09/20 01:28:48;;;;;;;4.72;0.57;;;7.90;99.90;;;;;;4899919;29;20044;-81
2022/09/20 01:31:17;;;;;;;3.40;0.70;;;7.80;99.90;;;;;;4884084;29;20036;-81
2022/09/20 01:33:42;;;;;;;2.38;0.70;;;7.90;99.90;;;;;;4899250;29;20119;-81
2022/09/20 01:36:12;;;;;;;1.08;0.40;;;7.60;99.90;;;;;;4884259;29;20185;-81
2022/09/20 01:38:59;;;;;;;1.60;0.45;;;7.70;99.90;;;;;;4899703;29;20395;-81
2022/09/20 01:41:43;;;;;;;0.50;0.32;;;8.00;99.90;;;;;;4899714;29;20089;-81
2022/09/20 01:44:24;;;;;;;2.90;0.60;;;8.00;99.90;;;;;;4883425;29;20500;-81
2022/09/20 01:46:59;;;;;;;2.88;1.00;;;8.10;99.90;;;;;;4898854;29;20060;-81
2022/09/20 01:49:54;;;;;;;4.40;0.80;;;8.20;99.90;;;;;;4899257;29;20044;-81
2022/09/20 01:52:38;;;;;;;1.25;0.73;;;8.30;99.90;;;;;;4899064;29;20545;-81
2022/09/20 01:55:22;;;;;;;0.77;0.40;;;8.60;99.90;;;;;;4898651;29;20040;-81
2022/09/20 01:58:00;;;;;;;1.98;1.10;;;8.60;99.90;;;;;;4899266;29;20045;-81
2022/09/20 02:00:30;;;;;;;5.80;1.33;;;8.80;99.90;;;;;;4883759;29;20084;-83
2022/09/20 02:03:06;;;;;;;2.30;1.27;;;8.90;99.90;;;;;;4898843;29;20036;-83
2022/09/20 02:05:50;;;;;;;3.53;0.65;;;9.10;99.90;;;;;;4874949;29;20044;-83
2022/09/20 02:08:54;;;;;;;2.22;0.35;;;9.30;99.90;;;;;;4899113;29;20048;-83
2022/09/20 02:11:32;;;;;;;0.65;0.47;;;9.40;99.90;;;;;;4899072;29;20051;-83
2022/09/20 02:14:01;;;;;;;2.58;0.98;;;9.50;99.90;;;;;;4898684;29;20108;-83
2022/09/20 02:16:48;;;;;;;4.25;0.60;;;9.60;99.90;;;;;;4882919;29;20041;-83
2022/09/20 02:19:26;;;;;;;1.95;0.50;;;9.70;99.90;;;;;;4898811;29;20052;-83
2022/09/20 02:22:10;;;;;;;3.67;1.20;;;9.70;99.90;;;;;;4898737;29;20054;-83
2022/09/20 02:24:48;;;;;;;2.78;0.55;;;9.80;99.90;;;;;;4898454;29;20041;-83
2022/09/20 02:27:34;;;;;;;3.88;0.60;;;9.90;99.90;;;;;;4882526;29;20506;-83
2022/09/20 02:30:19;;;;;;;0.82;0.40;;;10.00;99.90;;;;;;4883388;29;20402;-83
2022/09/20 02:33:03;;;;;;;3.25;0.55;;;10.00;99.90;;;;;;4898604;29;20080;-83
2022/09/20 02:35:32;;;;;;;2.63;0.70;;;10.10;99.90;;;;;;4898192;29;20040;-81
2022/09/20 02:38:13;;;;;;;2.55;0.63;;;10.70;99.90;;;;;;4885647;23;20061;-87
2022/09/20 02:41:10;;;;;;;1.90;0.88;;;10.20;99.90;;;;;;4879828;29;20492;-86
2022/09/20 02:43:49;;;;;;;3.45;0.80;;;10.40;99.90;;;;;;4879750;29;20041;-86
2022/09/20 02:46:49;;;;;;;9.60;1.25;;;10.60;99.90;;;;;;4878956;29;20041;-86
2022/09/20 02:49:54;;;;;;;4.90;1.27;;;10.70;99.90;;;;;;4863990;29;20045;-86
2022/09/20 02:52:32;;;;;;;3.97;1.08;;;10.80;99.90;;;;;;4874734;29;20052;-86
2022/09/20 02:55:05;;;;;;;4.63;0.95;;;10.80;99.90;;;;;;4863790;29;20511;-86
2022/09/20 02:57:52;;;;;;;6.25;0.68;;;10.80;99.90;;;;;;4886548;29;20052;-86
2022/09/20 03:00:26;;;;;;;0.45;0.32;;;10.80;99.90;;;;;;4863927;29;20056;-86
2022/09/20 03:03:04;;;;;;;2.15;0.60;;;10.80;99.90;;;;;;4863852;29;20077;-86
2022/09/20 03:05:43;;;;;;;2.65;0.77;;;10.80;99.90;;;;;;4863773;29;20073;-86
2022/09/20 03:08:27;;;;;;;1.58;0.45;;;10.80;99.90;;;;;;4888893;29;20037;-86
2022/09/20 03:11:30;;;;;;;1.60;0.30;;;10.70;99.90;;;;;;4858026;29;20377;-86
2022/09/20 03:14:07;;;;;;;1.27;0.40;;;10.70;99.90;;;;;;4865419;29;20128;-86
2022/09/20 03:17:03;;;;;;;1.00;0.63;;;10.70;99.90;;;;;;4853044;29;20157;-87
2022/09/20 03:19:52;;;;;;;0.73;0.40;;;10.70;99.90;;;;;;4863273;29;20127;-86
2022/09/20 03:22:44;;;;;;;0.30;0.30;;;10.70;99.90;;;;;;4882479;29;20051;-86
2022/09/20 03:25:37;;;;;;;2.28;0.77;;;10.60;99.90;;;;;;4875982;29;20136;-88
2022/09/20 03:28:22;;;;;;;1.75;0.70;;;10.60;99.90;;;;;;4877373;29;20081;-88
2022/09/20 03:31:16;;;;;;;1.73;0.45;;;10.60;99.90;;;;;;4863434;29;20079;-87
2022/09/20 03:34:27;;;;;;;0.60;0.32;;;10.60;99.90;;;;;;4848481;29;20078;-87
2022/09/20 03:37:05;;;;;;;1.98;0.35;;;10.70;99.90;;;;;;4860181;29;20053;-87
2022/09/20 03:39:31;;;;;;;0.95;0.50;;;;;;;;;;4873262;29;20053;-87
2022/09/20 03:42:26;;;;;;;1.13;0.43;;;10.70;99.90;;;;;;4874292;29;20045;-88
2022/09/20 03:45:12;;;;;;;2.38;0.47;;;10.70;99.90;;;;;;4878498;29;20053;-88
2022/09/20 03:47:55;;;;;;;1.25;0.43;;;10.70;99.90;;;;;;4863553;29;20459;-88
2022/09/20 03:50:48;;;;;;;1.08;0.47;;;10.70;99.90;;;;;;4878005;29;20105;-88
2022/09/20 03:53:38;;;;;;;2.05;0.30;;;10.70;99.90;;;;;;4863444;29;20048;-88
2022/09/20 03:56:18;;;;;;;2.85;0.30;;;10.70;99.90;;;;;;4862846;29;20097;-88
2022/09/20 03:58:50;;;;;;;0.40;0.40;;;11.30;99.90;;;;;;4877419;29;20052;-88
2022/09/20 04:01:25;;;;;;;0.35;0.25;;;11.70;99.90;;;;;;4862584;29;20048;-87
2022/09/20 04:04:12;;;;;;;1.90;0.60;;;10.50;99.90;;;;;;4878087;29;20416;-87
2022/09/20 04:06:40;;;;;;;;;;;10.50;99.90;;;;;;4863131;29;20128;-87
2022/09/20 04:09:28;;;;;;;0.65;0.52;;;10.50;99.90;;;;;;4862897;29;20359;-87
2022/09/20 04:12:21;;;;;;;0.50;0.50;;;10.50;99.90;;;;;;4864722;29;20132;-87
2022/09/20 04:15:15;;;;;;;1.48;0.20;;;10.50;99.90;;;;;;4878809;29;20045;-87
2022/09/20 04:17:48;;;;;;;3.63;0.45;;;10.50;99.90;;;;;;4862596;29;20104;-87
2022/09/20 04:20:42;;;;;;;3.25;0.50;;;10.60;99.90;;;;;;4862261;29;20047;-86
2022/09/20 04:23:31;;;;;;;0.50;0.25;;;10.60;99.90;;;;;;4878336;29;20128;-86
2022/09/20 04:26:00;;;;;;;1.55;0.80;;;10.60;99.90;;;;;;4837174;29;20061;-87
2022/09/20 04:29:07;;;;;;;1.10;0.50;;;11.40;99.90;;;;;;4893377;29;20104;-86
2022/09/20 04:32:02;;;;;;;2.13;0.50;;;10.60;99.90;;;;;;4835906;29;20057;-88
2022/09/20 04:37:32;;;;;;;0.75;0.40;;;10.60;99.90;;;;;;4877881;29;20048;-87
2022/09/20 04:40:49;;;;;;;4.70;1.40;;;10.60;99.90;;;;;;4862315;29;20056;-87
2022/09/20 04:43:52;;;;;;;4.43;1.10;;;10.10;99.90;;;;;;4862612;29;20077;-88
2022/09/20 04:46:52;;;;;;;0.95;0.68;;;10.60;99.90;;;;;;4847149;29;20285;-87
2022/09/20 04:49:37;;;;;;;2.38;1.08;;;10.60;99.90;;;;;;4861695;29;20052;-88
2022/09/20 04:52:35;;;;;;;3.63;1.42;;;10.60;99.90;;;;;;4862213;29;20084;-88
2022/09/20 04:55:22;;;;;;;3.33;0.95;;;10.60;99.90;;;;;;4862504;29;20052;-88
2022/09/20 04:58:03;;;;;;;6.20;0.90;;;10.40;99.90;;;;;;4877934;29;20151;-88
2022/09/20 05:01:01;;;;;;;0.90;0.50;;;10.60;99.90;;;;;;4857127;29;20064;-88
2022/09/20 05:03:41;;;;;;;;;;;10.60;99.90;;;;;;4856969;29;20040;-88
2022/09/20 05:06:07;;;;;;;1.42;0.55;;;;;;;;;;4858158;29;20019;-88
2022/09/20 05:08:54;;;;;;;3.58;0.52;;;10.60;99.90;;;;;;4849395;29;20480;-88
2022/09/20 05:11:50;;;;;;;2.83;0.60;;;10.70;99.90;;;;;;4864742;29;20045;-88
2022/09/20 05:14:23;;;;;;;0.95;0.40;;;10.70;99.90;;;;;;4881356;29;20072;-88
2022/09/20 05:17:09;;;;;;;4.72;0.57;;;10.60;99.90;;;;;;4865731;29;20048;-88
2022/09/20 05:19:34;;;;;;;1.48;0.70;;;10.60;99.90;;;;;;4862417;29;20044;-88
2022/09/20 05:22:00;;;;;;;3.15;1.10;;;;;;;;;;4878532;29;20045;-86
2022/09/20 05:24:59;;;;;;;1.75;0.75;;;10.50;99.90;;;;;;4865716;29;20069;-86
2022/09/20 05:27:55;;;;;;;0.95;0.55;;;10.50;99.90;;;;;;4865721;29;20045;-86
2022/09/20 05:30:45;;;;;;;2.45;1.17;;;10.40;99.90;;;;;;4865085;29;20560;-87
2022/09/20 05:33:35;;;;;;;4.28;0.85;;;10.30;99.90;;;;;;4881172;29;20085;-86
2022/09/20 05:36:43;;;;;;;1.27;0.50;;;10.30;99.90;;;;;;4865528;29;20045;-87
2022/09/20 05:39:12;;;;;;;;;;;10.20;99.90;;;;;;4865662;29;20057;-86
2022/09/20 05:41:51;;;;;;;1.70;0.40;;;10.10;99.90;;;;;;4864916;29;19968;-86
2022/09/20 05:44:43;;;;;;;1.17;0.52;;;10.10;99.90;;;;;;4880527;29;20045;-86
2022/09/20 05:47:42;;;;;;;2.92;0.57;;;10.00;99.90;;;;;;4865040;29;20041;-86
2022/09/20 05:50:46;;;;;;;8.98;1.25;;;10.00;99.90;;;;;;4847841;29;20057;-86
2022/09/20 05:53:34;;;;;;;1.75;0.50;;;10.00;99.90;;;;;;4851284;29;20040;-86
2022/09/20 05:56:30;;;;;;;1.83;0.52;;;9.90;99.90;;;;;;4862518;29;20141;-86
2022/09/20 05:59:42;;;;;;;0.93;0.50;;;10.00;99.90;;;;;;4847190;29;20396;-86
2022/09/20 06:06:03;;;;;;;1.30;0.32;;;9.20;99.90;;;;;;4881109;29;20049;-86
2022/09/20 06:09:15;;;;;;;1.13;0.35;;;9.90;99.90;;;;;;4865419;29;20044;-86
2022/09/20 06:12:11;;;;;;;0.90;0.50;;;9.90;99.90;;;;;;4879685;29;20072;-86
2022/09/20 06:15:00;;;;;;;3.28;0.70;;;10.00;99.90;;;;;;4841396;29;20048;-86
2022/09/20 06:17:52;;;;;;;6.18;0.70;;;10.00;99.90;;;;;;4861410;29;20185;-86
2022/09/20 06:20:44;;;;;;;6.80;1.25;;;10.00;99.90;;;;;;4864514;29;20132;-86
2022/09/20 06:23:10;;;;;;;3.13;0.68;;;10.20;99.90;;;;;;4863146;29;20133;-86
2022/09/20 06:26:42;;;;;;;;;;;;;;;;;;;;;
2022/09/20 06:44:42;;;;;;;1.50;0.63;;;19.00;99.90;;;;;;4751119;30;20082;-86
2022/09/20 06:47:24;;;;;;;1.60;0.75;;;21.20;99.90;;;;;;4742719;30;20113;-86
2022/09/20 06:50:03;;;;;;;4.25;0.90;;;22.20;99.90;;;;;;4760760;30;20075;-86
2022/09/20 06:52:33;;;;;;;1.77;0.40;;;22.70;97.20;;;;;;4754371;30;20039;-86
2022/09/20 06:55:28;;;;;;;0.90;0.50;;;23.10;95.60;;;;;;4766956;29;20089;-86
2022/09/20 06:57:59;;;;;;;3.83;0.40;;;23.80;95.30;;;;;;4793277;29;20043;-86
2022/09/20 07:00:26;;;;;;;2.47;0.60;;;23.80;92.80;;;;;;4759504;29;20479;-86
2022/09/20 07:02:55;;;;;;;0.55;0.40;;;24.00;91.30;;;;;;4764609;29;20086;-87
2022/09/20 07:05:23;;;;;;;5.95;0.82;;;23.80;91.30;;;;;;4775417;29;20135;-86
2022/09/20 07:07:49;;;;;;;3.28;0.55;;;22.70;92.20;;;;;;4793006;29;20041;-86
2022/09/20 07:10:15;;;;;;;1.88;1.08;;;22.00;92.80;;;;;;4842208;29;20034;-86
2022/09/20 07:12:41;;;;;;;0.80;0.40;;;21.00;93.70;;;;;;4828889;29;20050;-86
2022/09/20 07:15:08;;;;;;;4.22;0.70;;;20.40;95.80;;;;;;4827455;29;20066;-87
2022/09/20 07:17:34;;;;;;;3.13;0.52;;;20.60;94.40;;;;;;4841852;29;20050;-86
2022/09/20 07:20:03;;;;;;;1.95;0.98;;;20.10;95.30;;;;;;4807758;29;20136;-87
2022/09/20 07:22:29;;;;;;;2.47;0.50;;;19.60;95.40;;;;;;4812178;29;20133;-88
2022/09/20 07:24:55;;;;;;;0.77;0.50;;;19.20;97.00;;;;;;4795651;29;20045;-88
2022/09/20 07:27:20;;;;;;;0.47;0.32;;;18.80;97.60;;;;;;4841920;29;20080;-88
2022/09/20 07:29:46;;;;;;;1.88;0.65;;;18.50;99.20;;;;;;4813109;29;20465;-88
2022/09/20 07:32:12;;;;;;;1.23;0.40;;;19.40;99.90;;;;;;4811265;29;20523;-88
2022/09/20 07:34:38;;;;;;;3.50;0.40;;;20.00;98.70;;;;;;4812471;29;20030;-90
2022/09/20 07:37:04;;;;;;;2.70;1.00;;;21.20;96.90;;;;;;4823921;29;20051;-90
2022/09/20 07:39:30;;;;;;;1.60;0.85;;;21.30;95.60;;;;;;4840660;29;20313;-91
2022/09/20 07:41:58;;;;;;;1.58;1.05;;;21.00;94.30;;;;;;4847582;29;20091;-91
2022/09/20 07:44:24;;;;;;;2.70;0.90;;;20.70;94.70;;;;;;4840786;29;20067;-91
2022/09/20 07:46:51;;;;;;;2.67;0.98;;;21.20;95.60;;;;;;4822646;29;20037;-91
2022/09/20 07:49:17;;;;;;;3.85;1.05;;;21.80;95.00;;;;;;4842326;29;20033;-90
2022/09/20 07:51:43;;;;;;;2.60;0.43;;;22.80;94.30;;;;;;4834794;29;20081;-90
2022/09/20 07:54:09;;;;;;;2.08;1.17;;;24.00;90.60;;;;;;4845542;29;20045;-91
2022/09/20 07:56:35;;;;;;;1.83;0.52;;;24.60;91.10;;;;;;4829622;29;20045;-91
2022/09/20 07:59:01;;;;;;;1.75;0.77;;;25.10;90.00;;;;;;4829607;29;20060;-91
2022/09/20 08:01:27;;;;;;;1.90;1.10;;;25.80;90.10;;;;;;4847478;29;20068;-91
2022/09/20 08:03:54;;;;;;;0.75;0.63;;;26.70;86.80;;;;;;4831928;29;20073;-91
2022/09/20 08:06:20;;;;;;;4.05;0.82;;;27.50;86.60;;;;;;4855310;29;20049;-90
2022/09/20 08:08:46;;;;;;;0.73;0.65;;;27.80;82.10;;;;;;4836002;29;20041;-89
2022/09/20 08:11:16;;;;;;;0.85;0.50;;;28.50;77.80;;;;;;4845847;29;20489;-88
2022/09/20 08:13:53;;;;;;;2.45;0.73;;;28.40;80.10;;;;;;4855109;29;20049;-88
2022/09/20 08:16:20;;;;;;;1.55;0.52;;;28.70;76.40;;;;;;4846878;29;20045;-88
2022/09/20 08:18:46;;;;;;;3.30;0.32;;;28.70;77.10;;;;;;4847603;29;20459;-89
2022/09/20 08:21:13;;;;;;;0.93;0.45;;;28.90;75.10;;;;;;4847570;29;20049;-89
2022/09/20 08:23:41;;;;;;;2.75;0.43;;;28.70;75.00;;;;;;4863088;29;20555;-88
2022/09/20 08:26:10;;;;;;;3.03;0.50;;;28.90;74.00;;;;;;4863215;29;20560;-89
2022/09/20 08:28:37;;;;;;;2.03;0.47;;;29.10;73.90;;;;;;4863035;29;20567;-88
2022/09/20 08:31:08;;;;;;;1.30;0.68;;;28.40;73.20;;;;;;4844726;29;20040;-88
2022/09/20 08:33:37;;;;;;;3.45;0.70;;;28.40;75.00;;;;;;4847637;29;20056;-87
2022/09/20 08:36:08;;;;;;;1.67;0.60;;;28.60;73.50;;;;;;4862697;29;20048;-88
2022/09/20 08:38:34;;;;;;;2.28;0.70;;;27.90;72.50;;;;;;4862676;29;20488;-87
2022/09/20 08:41:25;;;;;;;0.52;0.25;;;26.70;76.00;;;;;;4831891;29;20075;-91
2022/09/20 08:43:54;;;;;;;5.88;0.52;;;25.00;80.20;;;;;;4850956;29;20137;-92
2022/09/20 08:46:25;;;;;;;1.45;0.28;;;23.60;82.50;;;;;;4848721;29;20504;-92
2022/09/20 08:48:51;;;;;;;2.38;0.70;;;22.40;83.80;;;;;;4865885;29;20470;-92
2022/09/20 08:51:20;;;;;;;3.22;0.77;;;21.30;87.20;;;;;;4845246;29;20087;-91
2022/09/20 08:53:52;;;;;;;1.67;0.55;;;20.50;90.00;;;;;;4840483;29;20037;-91
2022/09/20 08:56:19;;;;;;;0.20;0.20;;;19.80;90.40;;;;;;4851108;29;20052;-91
2022/09/20 08:58:45;;;;;;;0.95;0.40;;;19.60;91.80;;;;;;4857143;29;20040;-88
2022/09/20 09:01:20;;;;;;;3.25;0.50;;;19.20;92.30;;;;;;4869625;29;20127;-88
2022/09/20 09:03:50;;;;;;;1.08;0.52;;;19.20;92.10;;;;;;4881444;29;20037;-89
2022/09/20 09:06:18;;;;;;;2.10;0.52;;;19.50;91.20;;;;;;4866705;29;20051;-88
2022/09/20 09:08:48;;;;;;;0.80;0.30;;;20.30;90.60;;;;;;4850623;29;20037;-89
2022/09/20 09:11:16;;;;;;;0.43;0.20;;;21.50;89.80;;;;;;4835995;29;20048;-88
2022/09/20 09:14:47;;;;;;;0.75;0.30;;;23.10;89.60;;;;;;4850864;29;20542;-91
2022/09/20 09:16:56;;;;;;;2.20;0.40;;;25.30;78.10;;;;;;4859995;29;20080;-91
2022/09/20 09:19:43;;;;;;;2.40;0.57;;;25.90;78.70;;;;;;4850200;29;20083;-91
2022/09/20 09:22:08;;;;;;;1.08;0.32;;;25.60;79.60;;;;;;4866092;29;20484;-91
2022/09/20 09:24:34;;;;;;;1.58;0.35;;;24.80;79.40;;;;;;4865509;29;20097;-91
2022/09/20 09:27:18;;;;;;;1.45;0.20;;;24.40;79.70;;;;;;4848107;29;20061;-91
2022/09/20 09:29:55;;;;;;;1.95;0.68;;;23.60;79.40;;;;;;4853338;29;20041;-92
2022/09/20 09:32:38;;;;;;;1.70;0.40;;;22.80;80.50;;;;;;4850362;29;20091;-88
2022/09/20 09:35:23;;;;;;;0.85;0.45;;;22.40;81.50;;;;;;4834808;29;20037;-88
2022/09/20 09:37:55;;;;;;;3.08;0.47;;;21.90;82.70;;;;;;4850234;29;20052;-88
2022/09/20 09:40:21;;;;;;;1.25;0.45;;;22.00;85.90;;;;;;4863628;29;20063;-88
2022/09/20 09:42:56;;;;;;;0.73;0.43;;;22.80;84.60;;;;;;4834788;29;20048;-89
2022/09/20 09:45:37;;;;;;;1.20;0.45;;;23.50;83.90;;;;;;4861274;29;20045;-88
2022/09/20 09:48:26;;;;;;;5.35;0.80;;;24.70;82.20;;;;;;4864963;29;20503;-88
2022/09/20 09:51:14;;;;;;;1.85;0.90;;;26.10;80.20;;;;;;4852137;29;20479;-88
2022/09/20 09:53:41;;;;;;;2.58;0.40;;;27.20;76.90;;;;;;4838778;29;20049;-88
2022/09/20 09:56:31;;;;;;;2.42;0.30;;;28.40;76.60;;;;;;4863632;29;20052;-88
2022/09/20 09:59:11;;;;;;;1.05;0.30;;;29.30;74.10;;;;;;4856573;29;20049;-88
2022/09/20 10:01:50;;;;;;;0.25;0.25;;;30.00;71.40;;;;;;4858197;29;20048;-88
2022/09/20 10:04:43;;;;;;;0.82;0.28;;;30.00;73.80;;;;;;4849425;29;20056;-88
2022/09/20 10:07:29;;;;;;;0.30;0.10;;;29.50;71.70;;;;;;4863660;29;20045;-89
2022/09/20 10:09:55;;;;;;;;;;;27.70;70.30;;;;;;4859354;29;20456;-90
2022/09/20 10:13:07;;;;;;;2.05;0.60;;;26.10;73.30;;;;;;4865297;29;19982;-90
2022/09/20 10:16:03;;;;;;;0.70;0.15;;;24.70;76.40;;;;;;4827839;29;20484;-89
2022/09/20 10:18:41;;;;;;;1.75;0.40;;;23.50;79.00;;;;;;4848970;29;20492;-90
2022/09/20 10:21:16;;;;;;;1.85;0.52;;;23.10;81.10;;;;;;4860815;29;20045;-90
2022/09/20 10:23:48;;;;;;;1.08;0.63;;;23.20;80.00;;;;;;4857585;29;20033;-90
2022/09/20 10:26:42;;;;;;;1.98;0.73;;;23.30;79.90;;;;;;4841107;29;20473;-90
2022/09/20 10:29:21;;;;;;;1.60;0.43;;;22.90;81.10;;;;;;4854695;29;20041;-89
2022/09/20 10:32:36;;;;;;;1.55;0.77;;;22.70;82.30;;;;;;4848926;29;20073;-90
2022/09/20 10:35:10;;;;;;;1.27;0.40;;;22.40;80.00;;;;;;4800031;29;20062;-89
2022/09/20 10:38:10;;;;;;;1.80;0.63;;;22.30;81.50;;;;;;4840588;29;20054;-90
2022/09/20 10:43:52;;;;;;;0.95;0.40;;;21.00;83.80;;;;;;4845922;29;20045;-91
2022/09/20 10:46:36;;;;;;;2.28;0.68;;;20.50;84.20;;;;;;4835031;29;20520;-90
2022/09/20 10:49:26;;;;;;;4.15;0.82;;;20.20;85.70;;;;;;4835311;29;20460;-91
2022/09/20 10:51:56;;;;;;;0.55;0.22;;;20.00;85.90;;;;;;4845560;29;20041;-90
2022/09/20 10:54:31;;;;;;;1.75;0.50;;;20.00;87.30;;;;;;4830666;29;20507;-92
2022/09/20 10:57:28;;;;;;;0.95;0.40;;;20.50;90.00;;;;;;4830433;29;20045;-92
2022/09/20 11:00:04;;;;;;;2.67;0.70;;;22.00;84.80;;;;;;4829408;29;20042;-92
2022/09/20 11:02:36;;;;;;;;;;;23.90;84.60;;;;;;4830934;29;20392;-92
2022/09/20 11:05:27;;;;;;;1.55;1.02;;;24.80;78.80;;;;;;4834102;29;19980;-91
2022/09/20 11:08:04;;;;;;;2.45;1.05;;;25.00;75.70;;;;;;4820961;29;20400;-91
2022/09/20 11:10:49;;;;;;;4.13;0.63;;;24.40;76.50;;;;;;4839279;29;20064;-90
2022/09/20 11:13:37;;;;;;;1.17;0.20;;;24.30;80.80;;;;;;4824448;29;20046;-90
2022/09/20 11:16:22;;;;;;;0.77;0.68;;;24.70;79.90;;;;;;4827441;29;20057;-89
2022/09/20 11:19:03;;;;;;;1.98;0.68;;;24.40;77.60;;;;;;4837718;29;20053;-90
2022/09/20 11:21:32;;;;;;;1.73;0.57;;;23.40;77.60;;;;;;4829073;29;20511;-89
2022/09/20 11:24:13;;;;;;;0.32;0.22;;;22.70;78.10;;;;;;4829571;29;20042;-89
2022/09/20 11:26:51;;;;;;;1.95;0.55;;;22.00;79.10;;;;;;4830466;29;20136;-89
2022/09/20 11:29:41;;;;;;;1.60;0.68;;;22.00;81.60;;;;;;4830908;29;20112;-90
2022/09/20 11:32:33;;;;;;;3.75;1.05;;;23.10;81.60;;;;;;4830579;29;20132;-90
2022/09/20 11:35:09;;;;;;;1.25;0.95;;;24.30;76.40;;;;;;4830553;29;20061;-89
2022/09/20 11:37:45;;;;;;;3.53;0.65;;;25.20;75.30;;;;;;4829994;29;20045;-91
2022/09/20 11:41:01;;;;;;;0.90;0.38;;;25.20;74.00;;;;;;4830163;29;20140;-90
2022/09/20 11:43:29;;;;;;;2.00;0.68;;;24.40;73.80;;;;;;4772052;30;20047;-90
2022/09/20 11:46:03;;;;;;;0.35;0.30;;;24.40;76.70;;;;;;4822570;29;20386;-91
2022/09/20 11:49:03;;;;;;;2.60;0.57;;;25.10;74.50;;;;;;4819266;29;20034;-89
2022/09/20 11:51:35;;;;;;;1.23;0.68;;;25.80;74.70;;;;;;4840539;29;20053;-90
2022/09/20 11:54:14;;;;;;;3.72;0.75;;;25.60;70.10;;;;;;4829945;29;20485;-91
2022/09/20 11:56:49;;;;;;;1.05;0.52;;;24.90;72.90;;;;;;4830054;29;20056;-91
2022/09/20 11:59:42;;;;;;;2.58;0.45;;;23.70;73.60;;;;;;4829840;29;20053;-91
2022/09/20 12:02:42;;;;;;;0.95;0.40;;;22.60;74.20;;;;;;4830053;29;20054;-91
2022/09/20 12:05:28;;;;;;;0.52;0.20;;;21.80;75.30;;;;;;4841468;29;20105;-91
2022/09/20 12:07:57;;;;;;;2.08;0.50;;;21.50;79.90;;;;;;4829339;29;20048;-89
2022/09/20 12:10:36;;;;;;;3.90;1.10;;;22.00;78.70;;;;;;4844465;29;20038;-90
2022/09/20 12:13:17;;;;;;;1.23;0.50;;;22.90;77.80;;;;;;4829426;29;20370;-90
2022/09/20 12:15:43;;;;;;;1.15;0.20;;;23.80;77.20;;;;;;4829326;29;20041;-92
2022/09/20 12:18:31;;;;;;;3.50;0.85;;;24.30;75.70;;;;;;4829609;29;20109;-91
2022/09/20 12:20:58;;;;;;;0.40;0.40;;;24.00;76.50;;;;;;4828144;29;20080;-92
2022/09/20 12:23:39;;;;;;;1.25;0.30;;;23.10;76.70;;;;;;4826882;29;20253;-91
2022/09/20 12:26:19;;;;;;;2.05;0.30;;;22.20;78.60;;;;;;4829256;29;20461;-91
2022/09/20 12:28:56;;;;;;;1.80;0.47;;;21.40;80.80;;;;;;4834701;29;20396;-91
2022/09/20 12:31:24;;;;;;;4.68;0.90;;;20.80;83.70;;;;;;4847902;29;20396;-90
2022/09/20 12:34:08;;;;;;;2.35;0.60;;;20.70;85.70;;;;;;4839885;29;20056;-91
2022/09/20 12:37:03;;;;;;;3.35;0.75;;;21.00;88.10;;;;;;4843287;29;20120;-92
2022/09/20 12:39:36;;;;;;;1.35;0.68;;;20.90;84.30;;;;;;4859432;29;20049;-92
2022/09/20 12:42:11;;;;;;;1.65;0.32;;;20.70;85.50;;;;;;4859619;29;20053;-92
2022/09/20 12:45:06;;;;;;;3.60;0.53;;;20.70;86.90;;;;;;4844654;29;20053;-93
2022/09/20 12:47:41;;;;;;;5.18;0.70;;;21.20;86.20;;;;;;4847701;29;20060;-92
2022/09/20 12:53:10;;;;;;;3.65;1.13;;;22.40;85.30;;;;;;4863265;29;20502;-91
2022/09/20 12:56:01;;;;;;;1.63;0.40;;;22.80;81.90;;;;;;4847807;29;20088;-90
2022/09/20 12:58:32;;;;;;;1.25;0.32;;;23.10;82.00;;;;;;4853170;29;20144;-91
2022/09/20 13:01:04;;;;;;;1.33;0.70;;;23.10;81.60;;;;;;4863612;29;20092;-89
2022/09/20 13:03:35;;;;;;;4.68;0.52;;;23.00;79.90;;;;;;4862865;29;20117;-90
2022/09/20 13:06:13;;;;;;;0.55;0.10;;;22.20;79.90;;;;;;4848148;29;20057;-91
2022/09/20 13:09:03;;;;;;;2.58;0.52;;;21.60;78.90;;;;;;4853172;29;20041;-90
2022/09/20 13:11:50;;;;;;;0.73;0.50;;;20.90;81.50;;;;;;4857722;29;20041;-91
2022/09/20 13:14:25;;;;;;;1.95;0.57;;;20.40;81.90;;;;;;4828174;29;20489;-90
2022/09/20 13:17:13;;;;;;;1.02;0.25;;;20.00;83.10;;;;;;4837716;29;20136;-90
2022/09/20 13:19:49;;;;;;;1.60;0.52;;;19.80;84.00;;;;;;4856469;29;20128;-90
2022/09/20 13:22:33;;;;;;;;;;;19.80;83.10;;;;;;4856094;29;20072;-90
2022/09/20 13:25:03;;;;;;;0.30;0.30;;;19.90;83.70;;;;;;4863020;29;19935;-92
2022/09/20 13:27:36;;;;;;;1.38;0.63;;;20.20;83.30;;;;;;4862710;29;20392;-92
2022/09/20 13:30:31;;;;;;;1.20;0.43;;;20.40;79.40;;;;;;4847522;29;20103;-92
2022/09/20 13:33:16;;;;;;;1.00;0.30;;;20.60;79.90;;;;;;4848997;29;20057;-91
2022/09/20 13:35:45;;;;;;;1.55;0.22;;;20.90;79.30;;;;;;4847880;29;20045;-92
2022/09/20 13:38:13;;;;;;;0.93;0.30;;;20.80;79.90;;;;;;4835254;29;20053;-93
2022/09/20 13:40:48;;;;;;;0.80;0.40;;;20.90;79.40;;;;;;4850814;29;20089;-90
2022/09/20 13:43:28;;;;;;;3.50;0.57;;;21.10;78.40;;;;;;4849901;29;20514;-90
2022/09/20 13:45:56;;;;;;;0.52;0.13;;;21.30;80.40;;;;;;4847164;29;20144;-90
2022/09/20 13:48:27;;;;;;;0.75;0.40;;;21.40;82.50;;;;;;4855210;29;20049;-90
2022/09/20 13:50:53;;;;;;;1.23;0.22;;;21.20;84.40;;;;;;4865423;29;20036;-89
2022/09/20 13:53:21;;;;;;;1.67;0.10;;;21.30;82.80;;;;;;4883955;29;20040;-89
2022/09/20 13:55:47;;;;;;;0.95;0.50;;;21.20;82.10;;;;;;4850443;29;20045;-90
2022/09/20 13:58:33;;;;;;;1.42;0.40;;;21.10;81.70;;;;;;4846569;29;20056;-92
2022/09/20 14:01:08;;;;;;;1.08;0.20;;;21.10;81.70;;;;;;4847448;29;20045;-92
2022/09/20 14:03:35;;;;;;;3.55;0.45;;;20.90;82.40;;;;;;4846839;29;20098;-92
2022/09/20 14:06:08;;;;;;;0.47;0.28;;;20.70;83.10;;;;;;4834664;29;20053;-92
2022/09/20 14:08:41;;;;;;;1.08;0.20;;;20.70;83.90;;;;;;4850271;29;20037;-92
2022/09/20 14:11:10;;;;;;;0.63;0.40;;;20.80;84.10;;;;;;4849542;29;20045;-93
2022/09/20 14:13:42;;;;;;;1.15;0.38;;;20.80;83.10;;;;;;4849380;29;20075;-89
2022/09/20 14:16:09;;;;;;;1.95;0.40;;;20.80;84.50;;;;;;4839827;29;20041;-90
2022/09/20 14:18:37;;;;;;;0.73;0.30;;;20.90;85.80;;;;;;4834145;29;20101;-90
2022/09/20 14:21:07;;;;;;;1.58;0.35;;;21.00;85.90;;;;;;4849283;29;20131;-90